sensor_id;sensor_type;location;lat;lon;timestamp;temperature;humidity
8231;DHT22;4156;50.908;6.974;2022-12-29T00:01:49;11.70;99.90
8231;DHT22;4156;50.908;6.974;2022-12-29T00:04:15;11.60;99.90
8231;DHT22;4156;50.908;6.974;2022-12-29T00:06:41;11.70;99.90
8231;DHT22;4156;50.908;6.974;2022-12-29T00:09:07;11.70;99.90
8231;DHT22;4156;50.908;6.974;2022-12-29T00:11:33;11.70;99.90
8231;DHT22;4156;50.908;6.974;2022-12-29T00:13:58;11.70;99.90
8231;DHT22;4156;50.908;6.974;2022-12-29T00:16:44;11.70;99.90
8231;DHT22;4156;50.908;6.974;2022-12-29T00:19:11;11.70;99.90
8231;DHT22;4156;50.908;6.974;2022-12-29T00:21:56;11.70;99.90
8231;DHT22;4156;50.908;6.974;2022-12-29T00:24:40;11.70;99.90
8231;DHT22;4156;50.908;6.974;2022-12-29T00:27:24;11.70;99.90
8231;DHT22;4156;50.908;6.974;2022-12-29T00:30:10;11.70;99.90
8231;DHT22;4156;50.908;6.974;2022-12-29T00:32:55;11.70;99.90
8231;DHT22;4156;50.908;6.974;2022-12-29T00:35:52;11.80;99.90
8231;DHT22;4156;50.908;6.974;2022-12-29T00:38:19;11.70;99.90
8231;DHT22;4156;50.908;6.974;2022-12-29T00:41:04;11.80;99.90
8231;DHT22;4156;50.908;6.974;2022-12-29T00:43:48;11.80;99.90
8231;DHT22;4156;50.908;6.974;2022-12-29T00:46:38;11.80;99.90
8231;DHT22;4156;50.908;6.974;2022-12-29T00:49:05;11.80;99.90
8231;DHT22;4156;50.908;6.974;2022-12-29T00:51:50;11.80;99.90
8231;DHT22;4156;50.908;6.974;2022-12-29T00:54:16;11.80;99.90
8231;DHT22;4156;50.908;6.974;2022-12-29T00:56:41;11.80;99.90
8231;DHT22;4156;50.908;6.974;2022-12-29T00:59:09;11.90;99.90
8231;DHT22;4156;50.908;6.974;2022-12-29T01:01:36;11.90;99.90
8231;DHT22;4156;50.908;6.974;2022-12-29T01:04:02;11.90;99.90
8231;DHT22;4156;50.908;6.974;2022-12-29T01:06:28;11.90;99.90
8231;DHT22;4156;50.908;6.974;2022-12-29T01:08:53;11.90;99.90
8231;DHT22;4156;50.908;6.974;2022-12-29T01:11:38;11.90;99.90
8231;DHT22;4156;50.908;6.974;2022-12-29T01:14:04;12.00;99.90
8231;DHT22;4156;50.908;6.974;2022-12-29T01:16:30;12.00;99.90
8231;DHT22;4156;50.908;6.974;2022-12-29T01:18:56;12.00;99.90
8231;DHT22;4156;50.908;6.974;2022-12-29T01:21:21;12.00;99.90
8231;DHT22;4156;50.908;6.974;2022-12-29T01:23:47;12.00;99.90
8231;DHT22;4156;50.908;6.974;2022-12-29T01:26:14;12.00;99.90
8231;DHT22;4156;50.908;6.974;2022-12-29T01:28:41;12.00;99.90
8231;DHT22;4156;50.908;6.974;2022-12-29T01:31:11;12.00;99.90
8231;DHT22;4156;50.908;6.974;2022-12-29T01:33:37;12.00;99.90
8231;DHT22;4156;50.908;6.974;2022-12-29T01:36:14;12.00;99.90
8231;DHT22;4156;50.908;6.974;2022-12-29T01:38:40;12.00;99.90
8231;DHT22;4156;50.908;6.974;2022-12-29T01:41:07;12.10;99.90
8231;DHT22;4156;50.908;6.974;2022-12-29T01:43:41;12.10;99.90
8231;DHT22;4156;50.908;6.974;2022-12-29T01:46:25;12.10;99.90
8231;DHT22;4156;50.908;6.974;2022-12-29T01:48:55;12.10;99.90
8231;DHT22;4156;50.908;6.974;2022-12-29T01:51:25;12.10;99.90
8231;DHT22;4156;50.908;6.974;2022-12-29T01:53:52;12.10;99.90
8231;DHT22;4156;50.908;6.974;2022-12-29T01:56:19;12.10;99.90
8231;DHT22;4156;50.908;6.974;2022-12-29T01:58:48;12.10;99.90
8231;DHT22;4156;50.908;6.974;2022-12-29T02:01:18;12.10;99.90
8231;DHT22;4156;50.908;6.974;2022-12-29T02:03:45;12.20;99.90
8231;DHT22;4156;50.908;6.974;2022-12-29T02:06:18;12.20;99.90
8231;DHT22;4156;50.908;6.974;2022-12-29T02:08:47;12.20;99.90
8231;DHT22;4156;50.908;6.974;2022-12-29T02:11:16;12.20;99.90
8231;DHT22;4156;50.908;6.974;2022-12-29T02:13:41;12.20;99.90
8231;DHT22;4156;50.908;6.974;2022-12-29T02:25:09;12.20;99.90
8231;DHT22;4156;50.908;6.974;2022-12-29T02:27:55;12.20;99.90
8231;DHT22;4156;50.908;6.974;2022-12-29T02:30:35;12.20;99.90
8231;DHT22;4156;50.908;6.974;2022-12-29T02:33:13;12.20;99.90
8231;DHT22;4156;50.908;6.974;2022-12-29T02:36:07;12.20;99.90
8231;DHT22;4156;50.908;6.974;2022-12-29T02:38:47;12.30;99.90
8231;DHT22;4156;50.908;6.974;2022-12-29T02:41:31;12.20;99.90
8231;DHT22;4156;50.908;6.974;2022-12-29T02:44:08;12.20;99.90
8231;DHT22;4156;50.908;6.974;2022-12-29T02:46:48;12.30;99.90
8231;DHT22;4156;50.908;6.974;2022-12-29T02:49:31;12.30;99.90
8231;DHT22;4156;50.908;6.974;2022-12-29T02:52:19;12.20;99.90
8231;DHT22;4156;50.908;6.974;2022-12-29T02:54:48;12.30;99.90
8231;DHT22;4156;50.908;6.974;2022-12-29T02:57:26;12.30;99.90
8231;DHT22;4156;50.908;6.974;2022-12-29T03:00:02;12.30;99.90
8231;DHT22;4156;50.908;6.974;2022-12-29T03:03:06;12.30;99.90
8231;DHT22;4156;50.908;6.974;2022-12-29T03:05:57;12.30;99.90
8231;DHT22;4156;50.908;6.974;2022-12-29T03:11:02;12.30;99.90
8231;DHT22;4156;50.908;6.974;2022-12-29T03:13:36;12.30;99.90
8231;DHT22;4156;50.908;6.974;2022-12-29T03:16:29;12.30;99.90
8231;DHT22;4156;50.908;6.974;2022-12-29T03:21:36;12.30;99.90
8231;DHT22;4156;50.908;6.974;2022-12-29T03:24:25;12.30;99.90
8231;DHT22;4156;50.908;6.974;2022-12-29T03:26:55;12.30;99.90
8231;DHT22;4156;50.908;6.974;2022-12-29T03:29:21;12.30;99.90
8231;DHT22;4156;50.908;6.974;2022-12-29T03:31:49;12.30;99.90
8231;DHT22;4156;50.908;6.974;2022-12-29T03:34:16;12.30;99.90
8231;DHT22;4156;50.908;6.974;2022-12-29T03:36:48;12.40;99.90
8231;DHT22;4156;50.908;6.974;2022-12-29T03:39:17;12.30;99.90
8231;DHT22;4156;50.908;6.974;2022-12-29T03:41:46;12.40;99.90
8231;DHT22;4156;50.908;6.974;2022-12-29T03:44:13;12.40;99.90
8231;DHT22;4156;50.908;6.974;2022-12-29T03:46:39;12.40;99.90
8231;DHT22;4156;50.908;6.974;2022-12-29T03:49:04;12.40;99.90
8231;DHT22;4156;50.908;6.974;2022-12-29T03:51:30;12.40;99.90
8231;DHT22;4156;50.908;6.974;2022-12-29T03:53:55;12.40;99.90
8231;DHT22;4156;50.908;6.974;2022-12-29T03:56:21;12.40;99.90
8231;DHT22;4156;50.908;6.974;2022-12-29T03:58:46;12.40;99.90
8231;DHT22;4156;50.908;6.974;2022-12-29T04:01:11;12.40;99.90
8231;DHT22;4156;50.908;6.974;2022-12-29T04:03:37;12.40;99.90
8231;DHT22;4156;50.908;6.974;2022-12-29T04:06:03;12.40;99.90
8231;DHT22;4156;50.908;6.974;2022-12-29T04:08:29;12.40;99.90
8231;DHT22;4156;50.908;6.974;2022-12-29T04:10:54;12.40;99.90
8231;DHT22;4156;50.908;6.974;2022-12-29T04:13:20;12.40;99.90
8231;DHT22;4156;50.908;6.974;2022-12-29T04:15:45;12.40;99.90
8231;DHT22;4156;50.908;6.974;2022-12-29T04:18:12;12.40;99.90
8231;DHT22;4156;50.908;6.974;2022-12-29T04:20:37;12.40;99.90
8231;DHT22;4156;50.908;6.974;2022-12-29T04:23:22;12.40;99.90
8231;DHT22;4156;50.908;6.974;2022-12-29T04:25:47;12.40;99.90
8231;DHT22;4156;50.908;6.974;2022-12-29T04:28:14;12.40;99.90
8231;DHT22;4156;50.908;6.974;2022-12-29T04:30:39;12.40;99.90
8231;DHT22;4156;50.908;6.974;2022-12-29T04:33:06;12.40;99.90
8231;DHT22;4156;50.908;6.974;2022-12-29T04:35:32;12.40;99.90
8231;DHT22;4156;50.908;6.974;2022-12-29T04:37:57;12.50;99.90
8231;DHT22;4156;50.908;6.974;2022-12-29T04:40:22;12.40;99.90
8231;DHT22;4156;50.908;6.974;2022-12-29T04:42:49;12.50;99.90
8231;DHT22;4156;50.908;6.974;2022-12-29T04:45:15;12.50;99.90
8231;DHT22;4156;50.908;6.974;2022-12-29T04:47:40;12.50;99.90
8231;DHT22;4156;50.908;6.974;2022-12-29T04:50:06;12.50;99.90
8231;DHT22;4156;50.908;6.974;2022-12-29T04:52:32;12.50;99.90
8231;DHT22;4156;50.908;6.974;2022-12-29T04:54:57;12.50;99.90
8231;DHT22;4156;50.908;6.974;2022-12-29T04:57:23;12.50;99.90
8231;DHT22;4156;50.908;6.974;2022-12-29T04:59:48;12.50;99.90
8231;DHT22;4156;50.908;6.974;2022-12-29T05:02:15;12.50;99.90
8231;DHT22;4156;50.908;6.974;2022-12-29T05:04:41;12.50;99.90
8231;DHT22;4156;50.908;6.974;2022-12-29T05:07:07;12.50;99.90
8231;DHT22;4156;50.908;6.974;2022-12-29T05:09:32;12.50;99.90
8231;DHT22;4156;50.908;6.974;2022-12-29T05:11:58;12.50;99.90
8231;DHT22;4156;50.908;6.974;2022-12-29T05:14:23;12.50;99.90
8231;DHT22;4156;50.908;6.974;2022-12-29T05:16:49;12.60;99.90
8231;DHT22;4156;50.908;6.974;2022-12-29T05:19:14;12.50;99.90
8231;DHT22;4156;50.908;6.974;2022-12-29T05:21:40;12.50;99.90
8231;DHT22;4156;50.908;6.974;2022-12-29T05:24:05;12.60;99.90
8231;DHT22;4156;50.908;6.974;2022-12-29T05:26:31;12.50;99.90
8231;DHT22;4156;50.908;6.974;2022-12-29T05:28:56;12.60;99.90
8231;DHT22;4156;50.908;6.974;2022-12-29T05:31:22;12.50;99.90
8231;DHT22;4156;50.908;6.974;2022-12-29T05:33:47;12.60;99.90
8231;DHT22;4156;50.908;6.974;2022-12-29T05:36:13;12.50;99.90
8231;DHT22;4156;50.908;6.974;2022-12-29T05:38:38;12.50;99.90
8231;DHT22;4156;50.908;6.974;2022-12-29T05:41:04;12.60;99.90
8231;DHT22;4156;50.908;6.974;2022-12-29T05:43:29;12.50;99.90
8231;DHT22;4156;50.908;6.974;2022-12-29T05:45:56;12.60;99.90
8231;DHT22;4156;50.908;6.974;2022-12-29T05:48:21;12.60;99.90
8231;DHT22;4156;50.908;6.974;2022-12-29T05:50:48;12.50;99.90
8231;DHT22;4156;50.908;6.974;2022-12-29T05:53:14;12.60;99.90
8231;DHT22;4156;50.908;6.974;2022-12-29T05:55:40;12.60;99.90
8231;DHT22;4156;50.908;6.974;2022-12-29T05:58:05;12.60;99.90
8231;DHT22;4156;50.908;6.974;2022-12-29T06:00:31;12.60;99.90
8231;DHT22;4156;50.908;6.974;2022-12-29T06:02:57;12.60;99.90
8231;DHT22;4156;50.908;6.974;2022-12-29T06:05:22;12.60;99.90
8231;DHT22;4156;50.908;6.974;2022-12-29T06:07:48;12.60;99.90
8231;DHT22;4156;50.908;6.974;2022-12-29T06:10:13;12.60;99.90
8231;DHT22;4156;50.908;6.974;2022-12-29T06:12:39;12.60;99.90
8231;DHT22;4156;50.908;6.974;2022-12-29T06:15:05;12.60;99.90
8231;DHT22;4156;50.908;6.974;2022-12-29T06:17:31;12.60;99.90
8231;DHT22;4156;50.908;6.974;2022-12-29T06:19:56;12.60;99.90
8231;DHT22;4156;50.908;6.974;2022-12-29T06:22:21;12.60;99.90
8231;DHT22;4156;50.908;6.974;2022-12-29T06:24:47;12.60;99.90
8231;DHT22;4156;50.908;6.974;2022-12-29T06:27:13;12.60;99.90
8231;DHT22;4156;50.908;6.974;2022-12-29T06:29:39;12.60;99.90
8231;DHT22;4156;50.908;6.974;2022-12-29T06:32:06;12.70;99.90
8231;DHT22;4156;50.908;6.974;2022-12-29T06:34:31;12.60;99.90
8231;DHT22;4156;50.908;6.974;2022-12-29T06:36:57;12.60;99.90
8231;DHT22;4156;50.908;6.974;2022-12-29T06:39:23;12.60;99.90
8231;DHT22;4156;50.908;6.974;2022-12-29T06:41:51;12.60;99.90
8231;DHT22;4156;50.908;6.974;2022-12-29T06:44:17;12.70;99.90
8231;DHT22;4156;50.908;6.974;2022-12-29T06:46:42;12.60;99.90
8231;DHT22;4156;50.908;6.974;2022-12-29T06:49:08;12.60;99.90
8231;DHT22;4156;50.908;6.974;2022-12-29T06:51:33;12.60;99.90
8231;DHT22;4156;50.908;6.974;2022-12-29T06:53:59;12.60;99.90
8231;DHT22;4156;50.908;6.974;2022-12-29T06:56:24;12.60;99.90
8231;DHT22;4156;50.908;6.974;2022-12-29T06:58:50;12.70;99.90
8231;DHT22;4156;50.908;6.974;2022-12-29T07:01:15;12.60;99.90
8231;DHT22;4156;50.908;6.974;2022-12-29T07:03:41;12.70;99.90
8231;DHT22;4156;50.908;6.974;2022-12-29T07:06:08;12.60;99.90
8231;DHT22;4156;50.908;6.974;2022-12-29T07:08:33;12.60;99.90
8231;DHT22;4156;50.908;6.974;2022-12-29T07:10:59;12.60;99.90
8231;DHT22;4156;50.908;6.974;2022-12-29T07:13:24;12.60;99.90
8231;DHT22;4156;50.908;6.974;2022-12-29T07:15:50;12.60;99.90
8231;DHT22;4156;50.908;6.974;2022-12-29T07:18:15;12.60;99.90
8231;DHT22;4156;50.908;6.974;2022-12-29T07:20:41;12.60;99.90
8231;DHT22;4156;50.908;6.974;2022-12-29T07:23:07;12.60;99.90
8231;DHT22;4156;50.908;6.974;2022-12-29T07:25:32;12.70;99.90
8231;DHT22;4156;50.908;6.974;2022-12-29T07:28:00;12.60;99.90
8231;DHT22;4156;50.908;6.974;2022-12-29T07:30:25;12.70;99.90
8231;DHT22;4156;50.908;6.974;2022-12-29T07:32:51;12.60;99.90
8231;DHT22;4156;50.908;6.974;2022-12-29T07:35:16;12.70;99.90
8231;DHT22;4156;50.908;6.974;2022-12-29T07:37:42;12.70;99.90
8231;DHT22;4156;50.908;6.974;2022-12-29T07:40:09;12.60;99.90
8231;DHT22;4156;50.908;6.974;2022-12-29T07:42:34;12.60;99.90
8231;DHT22;4156;50.908;6.974;2022-12-29T07:45:00;12.70;99.90
8231;DHT22;4156;50.908;6.974;2022-12-29T07:47:26;12.60;99.90
8231;DHT22;4156;50.908;6.974;2022-12-29T07:49:52;12.60;99.90
8231;DHT22;4156;50.908;6.974;2022-12-29T07:52:18;12.60;99.90
8231;DHT22;4156;50.908;6.974;2022-12-29T07:54:43;12.60;99.90
8231;DHT22;4156;50.908;6.974;2022-12-29T07:57:09;12.70;99.90
8231;DHT22;4156;50.908;6.974;2022-12-29T07:59:34;12.70;99.90
8231;DHT22;4156;50.908;6.974;2022-12-29T08:02:00;12.60;99.90
8231;DHT22;4156;50.908;6.974;2022-12-29T08:04:25;12.60;99.90
8231;DHT22;4156;50.908;6.974;2022-12-29T08:06:51;12.60;99.90
8231;DHT22;4156;50.908;6.974;2022-12-29T08:09:17;12.60;99.90
8231;DHT22;4156;50.908;6.974;2022-12-29T08:11:43;12.60;99.90
8231;DHT22;4156;50.908;6.974;2022-12-29T08:14:09;12.70;99.90
8231;DHT22;4156;50.908;6.974;2022-12-29T08:16:35;12.60;99.90
8231;DHT22;4156;50.908;6.974;2022-12-29T08:19:01;12.60;99.90
8231;DHT22;4156;50.908;6.974;2022-12-29T08:21:29;12.60;99.90
8231;DHT22;4156;50.908;6.974;2022-12-29T08:23:55;12.60;99.90
8231;DHT22;4156;50.908;6.974;2022-12-29T08:26:21;12.60;99.90
8231;DHT22;4156;50.908;6.974;2022-12-29T08:28:47;12.60;99.90
8231;DHT22;4156;50.908;6.974;2022-12-29T08:31:12;12.70;99.90
8231;DHT22;4156;50.908;6.974;2022-12-29T08:33:38;12.70;99.90
8231;DHT22;4156;50.908;6.974;2022-12-29T08:36:05;12.70;99.90
8231;DHT22;4156;50.908;6.974;2022-12-29T08:38:32;12.70;99.90
8231;DHT22;4156;50.908;6.974;2022-12-29T08:40:58;12.70;99.90
8231;DHT22;4156;50.908;6.974;2022-12-29T08:43:26;12.70;99.90
8231;DHT22;4156;50.908;6.974;2022-12-29T08:45:52;12.70;99.90
8231;DHT22;4156;50.908;6.974;2022-12-29T08:48:17;12.70;99.90
8231;DHT22;4156;50.908;6.974;2022-12-29T08:50:45;12.70;99.90
8231;DHT22;4156;50.908;6.974;2022-12-29T08:53:11;12.70;99.90
8231;DHT22;4156;50.908;6.974;2022-12-29T08:55:37;12.70;99.90
8231;DHT22;4156;50.908;6.974;2022-12-29T08:58:02;12.70;99.90
8231;DHT22;4156;50.908;6.974;2022-12-29T09:00:29;12.70;99.90
8231;DHT22;4156;50.908;6.974;2022-12-29T09:02:54;12.70;99.90
8231;DHT22;4156;50.908;6.974;2022-12-29T09:05:20;12.70;99.90
8231;DHT22;4156;50.908;6.974;2022-12-29T09:07:45;12.70;99.90
8231;DHT22;4156;50.908;6.974;2022-12-29T09:10:11;12.70;99.90
8231;DHT22;4156;50.908;6.974;2022-12-29T09:12:36;12.70;99.90
8231;DHT22;4156;50.908;6.974;2022-12-29T09:15:03;12.70;99.90
8231;DHT22;4156;50.908;6.974;2022-12-29T09:17:29;12.70;99.90
8231;DHT22;4156;50.908;6.974;2022-12-29T09:20:07;12.70;99.90
8231;DHT22;4156;50.908;6.974;2022-12-29T09:22:34;12.70;99.90
8231;DHT22;4156;50.908;6.974;2022-12-29T09:24:59;12.70;99.90
8231;DHT22;4156;50.908;6.974;2022-12-29T09:27:25;12.70;99.90
8231;DHT22;4156;50.908;6.974;2022-12-29T09:29:50;12.70;99.90
8231;DHT22;4156;50.908;6.974;2022-12-29T09:32:16;12.70;99.90
8231;DHT22;4156;50.908;6.974;2022-12-29T09:34:41;12.70;99.90
8231;DHT22;4156;50.908;6.974;2022-12-29T09:37:07;12.70;99.90
8231;DHT22;4156;50.908;6.974;2022-12-29T09:39:32;12.70;99.90
8231;DHT22;4156;50.908;6.974;2022-12-29T09:42:22;12.80;99.90
8231;DHT22;4156;50.908;6.974;2022-12-29T09:45:26;12.80;99.90
8231;DHT22;4156;50.908;6.974;2022-12-29T09:47:54;12.80;99.90
8231;DHT22;4156;50.908;6.974;2022-12-29T09:50:28;12.80;99.90
8231;DHT22;4156;50.908;6.974;2022-12-29T09:53:00;12.80;99.90
8231;DHT22;4156;50.908;6.974;2022-12-29T09:55:36;12.80;99.90
8231;DHT22;4156;50.908;6.974;2022-12-29T09:58:09;12.80;99.90
8231;DHT22;4156;50.908;6.974;2022-12-29T10:00:50;12.80;99.90
8231;DHT22;4156;50.908;6.974;2022-12-29T10:03:20;12.80;99.90
8231;DHT22;4156;50.908;6.974;2022-12-29T10:09:17;12.80;99.90
8231;DHT22;4156;50.908;6.974;2022-12-29T10:14:47;12.80;99.90
8231;DHT22;4156;50.908;6.974;2022-12-29T10:17:47;12.80;99.90
8231;DHT22;4156;50.908;6.974;2022-12-29T10:21:01;12.80;99.90
8231;DHT22;4156;50.908;6.974;2022-12-29T10:23:45;12.90;99.90
8231;DHT22;4156;50.908;6.974;2022-12-29T10:26:23;12.90;99.90
8231;DHT22;4156;50.908;6.974;2022-12-29T10:28:53;12.90;99.90
8231;DHT22;4156;50.908;6.974;2022-12-29T10:31:24;12.90;99.90
8231;DHT22;4156;50.908;6.974;2022-12-29T10:33:56;12.90;99.90
8231;DHT22;4156;50.908;6.974;2022-12-29T10:36:34;12.90;99.90
8231;DHT22;4156;50.908;6.974;2022-12-29T10:44:44;12.90;99.90
8231;DHT22;4156;50.908;6.974;2022-12-29T10:47:25;13.00;99.90
8231;DHT22;4156;50.908;6.974;2022-12-29T10:49:51;13.00;99.90
8231;DHT22;4156;50.908;6.974;2022-12-29T10:52:19;12.90;99.90
8231;DHT22;4156;50.908;6.974;2022-12-29T10:54:51;13.00;99.90
8231;DHT22;4156;50.908;6.974;2022-12-29T10:57:25;13.00;99.90
8231;DHT22;4156;50.908;6.974;2022-12-29T10:59:51;13.00;99.90
8231;DHT22;4156;50.908;6.974;2022-12-29T11:07:57;13.10;99.90
8231;DHT22;4156;50.908;6.974;2022-12-29T11:13:00;13.10;99.90
8231;DHT22;4156;50.908;6.974;2022-12-29T11:15:26;13.10;99.90
8231;DHT22;4156;50.908;6.974;2022-12-29T11:18:01;13.10;99.90
8231;DHT22;4156;50.908;6.974;2022-12-29T11:20:30;13.10;99.90
8231;DHT22;4156;50.908;6.974;2022-12-29T11:22:57;13.10;99.90
8231;DHT22;4156;50.908;6.974;2022-12-29T11:25:23;13.10;99.90
8231;DHT22;4156;50.908;6.974;2022-12-29T11:27:59;13.10;99.90
8231;DHT22;4156;50.908;6.974;2022-12-29T11:30:28;13.10;99.90
8231;DHT22;4156;50.908;6.974;2022-12-29T11:32:55;13.10;99.90
8231;DHT22;4156;50.908;6.974;2022-12-29T11:35:36;13.10;99.90
8231;DHT22;4156;50.908;6.974;2022-12-29T11:38:04;13.10;99.90
8231;DHT22;4156;50.908;6.974;2022-12-29T11:40:29;13.10;99.90
8231;DHT22;4156;50.908;6.974;2022-12-29T11:42:58;13.20;99.90
8231;DHT22;4156;50.908;6.974;2022-12-29T11:45:29;13.20;99.90
8231;DHT22;4156;50.908;6.974;2022-12-29T11:48:05;13.20;99.90
8231;DHT22;4156;50.908;6.974;2022-12-29T11:50:33;13.20;99.90
8231;DHT22;4156;50.908;6.974;2022-12-29T11:53:03;13.10;99.90
8231;DHT22;4156;50.908;6.974;2022-12-29T11:55:29;13.20;99.90
8231;DHT22;4156;50.908;6.974;2022-12-29T11:57:57;13.10;99.90
8231;DHT22;4156;50.908;6.974;2022-12-29T12:00:24;13.10;99.90
8231;DHT22;4156;50.908;6.974;2022-12-29T12:03:22;13.10;99.90
8231;DHT22;4156;50.908;6.974;2022-12-29T12:05:55;13.20;99.90
8231;DHT22;4156;50.908;6.974;2022-12-29T12:08:48;13.20;99.90
8231;DHT22;4156;50.908;6.974;2022-12-29T12:11:18;13.20;99.90
8231;DHT22;4156;50.908;6.974;2022-12-29T12:21:48;13.10;99.90
8231;DHT22;4156;50.908;6.974;2022-12-29T12:24:29;13.20;99.90
8231;DHT22;4156;50.908;6.974;2022-12-29T12:27:20;13.20;99.90
8231;DHT22;4156;50.908;6.974;2022-12-29T12:32:46;13.20;99.90
8231;DHT22;4156;50.908;6.974;2022-12-29T12:35:15;13.20;99.90
8231;DHT22;4156;50.908;6.974;2022-12-29T12:40:43;13.20;99.90
8231;DHT22;4156;50.908;6.974;2022-12-29T12:46:00;13.20;99.90
8231;DHT22;4156;50.908;6.974;2022-12-29T12:51:54;13.10;99.90
8231;DHT22;4156;50.908;6.974;2022-12-29T12:57:34;13.20;99.90
8231;DHT22;4156;50.908;6.974;2022-12-29T13:00:04;13.20;99.90
8231;DHT22;4156;50.908;6.974;2022-12-29T13:05:36;13.20;99.90
8231;DHT22;4156;50.908;6.974;2022-12-29T13:10:54;13.20;99.90
8231;DHT22;4156;50.908;6.974;2022-12-29T13:13:51;13.20;99.90
8231;DHT22;4156;50.908;6.974;2022-12-29T13:19:15;13.30;99.90
8231;DHT22;4156;50.908;6.974;2022-12-29T13:22:13;13.30;99.90
8231;DHT22;4156;50.908;6.974;2022-12-29T13:25:13;13.30;99.90
8231;DHT22;4156;50.908;6.974;2022-12-29T13:28:10;13.20;99.90
8231;DHT22;4156;50.908;6.974;2022-12-29T13:33:30;13.20;99.90
8231;DHT22;4156;50.908;6.974;2022-12-29T13:36:02;13.20;99.90
8231;DHT22;4156;50.908;6.974;2022-12-29T13:38:45;13.20;99.90
8231;DHT22;4156;50.908;6.974;2022-12-29T13:41:34;13.20;99.90
8231;DHT22;4156;50.908;6.974;2022-12-29T13:44:03;13.20;99.90
8231;DHT22;4156;50.908;6.974;2022-12-29T13:46:44;13.20;99.90
8231;DHT22;4156;50.908;6.974;2022-12-29T13:49:18;13.20;99.90
8231;DHT22;4156;50.908;6.974;2022-12-29T13:54:39;13.20;99.90
8231;DHT22;4156;50.908;6.974;2022-12-29T13:57:40;13.20;99.90
8231;DHT22;4156;50.908;6.974;2022-12-29T14:00:16;13.20;99.90
8231;DHT22;4156;50.908;6.974;2022-12-29T14:05:28;13.10;99.90
8231;DHT22;4156;50.908;6.974;2022-12-29T14:08:00;13.20;99.90
8231;DHT22;4156;50.908;6.974;2022-12-29T14:10:35;13.20;99.90
8231;DHT22;4156;50.908;6.974;2022-12-29T14:13:16;13.20;99.90
8231;DHT22;4156;50.908;6.974;2022-12-29T14:15:45;13.20;99.90
8231;DHT22;4156;50.908;6.974;2022-12-29T14:18:19;13.20;99.90
8231;DHT22;4156;50.908;6.974;2022-12-29T14:36:42;13.10;99.90
8231;DHT22;4156;50.908;6.974;2022-12-29T14:39:41;13.00;99.90
8231;DHT22;4156;50.908;6.974;2022-12-29T14:44:50;13.00;99.90
8231;DHT22;4156;50.908;6.974;2022-12-29T14:49:55;13.00;99.90
8231;DHT22;4156;50.908;6.974;2022-12-29T14:52:25;13.00;99.90
8231;DHT22;4156;50.908;6.974;2022-12-29T14:54:54;13.00;99.90
8231;DHT22;4156;50.908;6.974;2022-12-29T14:57:28;13.00;99.90
8231;DHT22;4156;50.908;6.974;2022-12-29T15:00:00;13.00;99.90
8231;DHT22;4156;50.908;6.974;2022-12-29T15:02:33;13.00;99.90
8231;DHT22;4156;50.908;6.974;2022-12-29T15:05:00;12.90;99.90
8231;DHT22;4156;50.908;6.974;2022-12-29T15:07:27;12.90;99.90
8231;DHT22;4156;50.908;6.974;2022-12-29T15:09:58;13.00;99.90
8231;DHT22;4156;50.908;6.974;2022-12-29T15:12:45;12.90;99.90
8231;DHT22;4156;50.908;6.974;2022-12-29T15:15:27;12.90;99.90
8231;DHT22;4156;50.908;6.974;2022-12-29T15:17:55;12.90;99.90
8231;DHT22;4156;50.908;6.974;2022-12-29T15:20:29;12.90;99.90
8231;DHT22;4156;50.908;6.974;2022-12-29T15:23:03;12.90;99.90
8231;DHT22;4156;50.908;6.974;2022-12-29T15:25:30;12.90;99.90
8231;DHT22;4156;50.908;6.974;2022-12-29T15:28:00;12.90;99.90
8231;DHT22;4156;50.908;6.974;2022-12-29T15:30:26;12.90;99.90
8231;DHT22;4156;50.908;6.974;2022-12-29T15:32:52;12.80;99.90
8231;DHT22;4156;50.908;6.974;2022-12-29T15:35:34;12.80;99.90
8231;DHT22;4156;50.908;6.974;2022-12-29T15:38:11;12.80;99.90
8231;DHT22;4156;50.908;6.974;2022-12-29T15:40:38;12.80;99.90
8231;DHT22;4156;50.908;6.974;2022-12-29T15:43:22;12.80;99.90
8231;DHT22;4156;50.908;6.974;2022-12-29T15:45:50;12.80;99.90
8231;DHT22;4156;50.908;6.974;2022-12-29T15:48:22;12.70;99.90
8231;DHT22;4156;50.908;6.974;2022-12-29T15:50:49;12.70;99.90
8231;DHT22;4156;50.908;6.974;2022-12-29T15:53:33;12.70;99.90
8231;DHT22;4156;50.908;6.974;2022-12-29T15:56:01;12.70;99.90
8231;DHT22;4156;50.908;6.974;2022-12-29T15:58:29;12.70;99.90
8231;DHT22;4156;50.908;6.974;2022-12-29T16:00:57;12.70;99.90
8231;DHT22;4156;50.908;6.974;2022-12-29T16:03:26;12.60;99.90
8231;DHT22;4156;50.908;6.974;2022-12-29T16:06:06;12.60;99.90
8231;DHT22;4156;50.908;6.974;2022-12-29T16:08:40;12.60;99.90
8231;DHT22;4156;50.908;6.974;2022-12-29T16:11:31;12.60;99.90
8231;DHT22;4156;50.908;6.974;2022-12-29T16:13:57;12.50;99.90
8231;DHT22;4156;50.908;6.974;2022-12-29T16:16:34;12.50;99.90
8231;DHT22;4156;50.908;6.974;2022-12-29T16:19:06;12.50;99.90
8231;DHT22;4156;50.908;6.974;2022-12-29T16:21:35;12.50;99.90
8231;DHT22;4156;50.908;6.974;2022-12-29T16:24:14;12.50;99.90
8231;DHT22;4156;50.908;6.974;2022-12-29T16:27:02;12.50;99.90
8231;DHT22;4156;50.908;6.974;2022-12-29T16:29:32;12.50;99.90
8231;DHT22;4156;50.908;6.974;2022-12-29T16:31:59;12.50;99.90
8231;DHT22;4156;50.908;6.974;2022-12-29T16:37:32;12.40;99.90
8231;DHT22;4156;50.908;6.974;2022-12-29T16:42:46;12.30;99.90
8231;DHT22;4156;50.908;6.974;2022-12-29T16:45:31;12.40;99.90
8231;DHT22;4156;50.908;6.974;2022-12-29T16:50:30;12.30;99.90
8231;DHT22;4156;50.908;6.974;2022-12-29T16:52:56;12.20;99.90
8231;DHT22;4156;50.908;6.974;2022-12-29T16:55:22;12.10;99.90
8231;DHT22;4156;50.908;6.974;2022-12-29T16:57:49;12.10;99.90
8231;DHT22;4156;50.908;6.974;2022-12-29T17:00:24;12.10;99.90
8231;DHT22;4156;50.908;6.974;2022-12-29T17:03:01;12.10;99.90
8231;DHT22;4156;50.908;6.974;2022-12-29T17:05:27;12.10;99.90
8231;DHT22;4156;50.908;6.974;2022-12-29T17:07:53;12.10;99.90
8231;DHT22;4156;50.908;6.974;2022-12-29T17:10:18;12.10;99.90
8231;DHT22;4156;50.908;6.974;2022-12-29T17:12:46;12.10;99.90
8231;DHT22;4156;50.908;6.974;2022-12-29T17:15:32;12.00;99.90
8231;DHT22;4156;50.908;6.974;2022-12-29T17:17:59;12.00;99.90
8231;DHT22;4156;50.908;6.974;2022-12-29T17:20:27;12.00;99.90
8231;DHT22;4156;50.908;6.974;2022-12-29T17:22:54;12.00;99.90
8231;DHT22;4156;50.908;6.974;2022-12-29T17:27:50;12.00;99.90
8231;DHT22;4156;50.908;6.974;2022-12-29T17:30:20;12.00;99.90
8231;DHT22;4156;50.908;6.974;2022-12-29T17:33:09;12.00;99.90
8231;DHT22;4156;50.908;6.974;2022-12-29T17:35:36;11.90;99.90
8231;DHT22;4156;50.908;6.974;2022-12-29T17:38:02;11.90;99.90
8231;DHT22;4156;50.908;6.974;2022-12-29T17:40:30;11.90;99.90
8231;DHT22;4156;50.908;6.974;2022-12-29T17:42:57;11.90;99.90
8231;DHT22;4156;50.908;6.974;2022-12-29T17:45:25;11.80;99.90
8231;DHT22;4156;50.908;6.974;2022-12-29T17:47:51;11.80;99.90
8231;DHT22;4156;50.908;6.974;2022-12-29T17:50:19;11.80;99.90
8231;DHT22;4156;50.908;6.974;2022-12-29T17:52:51;11.80;99.90
8231;DHT22;4156;50.908;6.974;2022-12-29T17:55:19;11.80;99.90
8231;DHT22;4156;50.908;6.974;2022-12-29T17:57:45;11.80;99.90
8231;DHT22;4156;50.908;6.974;2022-12-29T18:00:16;11.70;99.90
8231;DHT22;4156;50.908;6.974;2022-12-29T18:02:42;11.70;99.90
8231;DHT22;4156;50.908;6.974;2022-12-29T18:05:25;11.60;99.90
8231;DHT22;4156;50.908;6.974;2022-12-29T18:07:51;11.60;99.90
8231;DHT22;4156;50.908;6.974;2022-12-29T18:10:18;11.60;99.90
8231;DHT22;4156;50.908;6.974;2022-12-29T18:12:46;11.40;99.90